Rachal, Texas
Current Conditions -  °F | °C
As of 4:35 PM on Tuesday 21 Oct 2014 (Local Time) from KBKS Reporting Station
Clear Clear  
Wind Chill: 82°   Ceiling: Unl
Heat Index: 85°   Visibility: 10mi
Dew Point: 68°   Wind: 16mph
Humidity: 62%   Direction: 60°ENE
Pressure: 29.92"   Gusts: NA
Location:  26.9826°N, 98.212°W
Report Text: KBKS 212135Z AUTO 06014KT 10SM CLR 28/20 A2992 RMK AO1 T02770199
Loading
Personal Weather Stations






























Interactive Weather Map
Tropical Storm Tracking
New forecast layout! Learn more

10-Day Weather Forecast

Advertisements
Track Severe Weather on mobile